createdAt,value
2017-07-28T00:00:10.927Z,16.40
2017-07-28T00:02:42.197Z,28.90
2017-07-28T00:05:10.500Z,28.67
2017-07-28T00:07:38.977Z,25.50
2017-07-28T00:10:07.280Z,40.57
2017-07-28T00:12:35.585Z,28.67
2017-07-28T00:15:03.937Z,24.87
2017-07-28T00:17:32.241Z,25.60
2017-07-28T00:20:00.600Z,24.17
2017-07-28T00:22:28.980Z,24.40
2017-07-28T00:24:57.315Z,40.23
2017-07-28T00:27:25.615Z,29.67
2017-07-28T00:32:33.637Z,19.00
2017-07-28T00:35:03.235Z,22.97
2017-07-28T00:37:31.529Z,36.17
2017-07-28T00:39:59.919Z,18.30
2017-07-28T00:42:28.264Z,18.83
2017-07-28T00:44:56.548Z,25.03
2017-07-28T00:47:24.896Z,21.67
2017-07-28T00:49:53.197Z,27.43
2017-07-28T00:52:21.523Z,26.50
2017-07-28T00:54:49.866Z,21.20
2017-07-28T00:57:18.148Z,21.37
2017-07-28T00:59:46.488Z,43.90
2017-07-28T01:02:14.828Z,18.10
2017-07-28T01:04:43.170Z,26.03
2017-07-28T01:07:11.499Z,27.53
2017-07-28T01:09:41.983Z,31.90
2017-07-28T01:12:10.285Z,29.53
2017-07-28T01:14:38.629Z,29.07
2017-07-28T01:17:06.966Z,33.90
2017-07-28T01:19:35.256Z,28.40
2017-07-28T01:22:03.688Z,29.50
2017-07-28T01:24:31.974Z,24.30
2017-07-28T01:27:00.268Z,37.23
2017-07-28T01:29:28.607Z,28.23
2017-07-28T01:31:56.900Z,21.40
2017-07-28T01:34:25.235Z,21.80
2017-07-28T01:36:53.535Z,21.50
2017-07-28T01:39:21.821Z,21.30
2017-07-28T01:41:50.147Z,26.30
2017-07-28T01:44:18.551Z,27.57
2017-07-28T01:46:47.822Z,23.77
2017-07-28T01:49:16.150Z,30.70
2017-07-28T01:51:44.534Z,24.70
2017-07-28T01:54:12.824Z,25.90
2017-07-28T01:56:41.313Z,26.77
2017-07-28T01:59:09.608Z,23.10
2017-07-28T02:01:38.059Z,36.37
2017-07-28T02:04:06.402Z,22.70
2017-07-28T02:06:35.707Z,42.70
2017-07-28T02:09:04.032Z,33.50
2017-07-28T02:11:32.392Z,28.43
2017-07-28T02:14:01.531Z,25.67
2017-07-28T02:16:29.886Z,33.93
2017-07-28T02:18:58.182Z,32.47
2017-07-28T02:21:26.501Z,35.43
2017-07-28T02:23:54.849Z,37.60
2017-07-28T02:26:23.340Z,34.50
2017-07-28T02:28:51.724Z,33.53
2017-07-28T02:31:20.119Z,33.73
2017-07-28T02:33:48.519Z,34.60
2017-07-28T02:36:22.693Z,34.13
2017-07-28T02:38:51.033Z,29.73
2017-07-28T02:41:19.417Z,39.80
2017-07-28T02:43:47.896Z,32.20
2017-07-28T02:46:16.204Z,30.90
2017-07-28T02:48:44.598Z,30.80
2017-07-28T02:51:13.707Z,39.97
2017-07-28T02:53:42.012Z,35.00
2017-07-28T02:56:11.304Z,27.90
2017-07-28T02:58:39.695Z,36.73
2017-07-28T03:01:07.991Z,31.57
2017-07-28T03:03:37.107Z,31.17
2017-07-28T03:06:06.175Z,37.97
2017-07-28T03:08:35.908Z,37.50
2017-07-28T03:11:04.204Z,40.07
2017-07-28T03:13:32.539Z,26.77
2017-07-28T03:16:00.875Z,33.67
2017-07-28T03:18:29.284Z,34.77
2017-07-28T03:20:57.624Z,30.67
2017-07-28T03:23:25.923Z,29.63
2017-07-28T03:25:54.388Z,34.73
2017-07-28T03:28:22.684Z,38.60
2017-07-28T03:30:51.045Z,37.40
2017-07-28T03:33:19.423Z,45.77
2017-07-28T03:35:47.732Z,36.47
2017-07-28T03:38:16.946Z,42.50
2017-07-28T03:40:46.004Z,39.90
2017-07-28T03:43:14.315Z,36.33
2017-07-28T03:45:43.631Z,37.43
2017-07-28T03:48:11.936Z,24.93
2017-07-28T03:50:41.136Z,39.50
2017-07-28T03:53:09.617Z,31.77
2017-07-28T03:55:37.916Z,26.70
2017-07-28T03:58:06.221Z,24.60
2017-07-28T04:00:35.512Z,25.83
2017-07-28T04:03:03.809Z,24.60
2017-07-28T04:05:32.128Z,25.60
2017-07-28T04:08:00.483Z,35.80
2017-07-28T04:10:28.836Z,10.70
2017-07-28T04:12:57.132Z,17.90
2017-07-28T04:15:25.467Z,17.63
2017-07-28T04:17:54.564Z,16.23
2017-07-28T04:20:23.191Z,14.40
2017-07-28T04:22:51.524Z,19.07
2017-07-28T04:25:19.872Z,16.90
2017-07-28T04:27:48.614Z,24.77
2017-07-28T04:30:16.970Z,22.33
2017-07-28T04:32:45.314Z,15.30
2017-07-28T04:35:13.709Z,20.77
2017-07-28T04:37:42.197Z,11.57
2017-07-28T04:40:10.487Z,25.77
2017-07-28T04:42:38.788Z,23.90
2017-07-28T04:45:07.892Z,17.53
2017-07-28T04:47:36.996Z,27.90
2017-07-28T04:50:05.337Z,15.67
2017-07-28T04:52:33.679Z,43.80
2017-07-28T04:55:02.750Z,12.80
2017-07-28T04:57:31.068Z,18.40
2017-07-28T04:59:59.460Z,16.63
2017-07-28T05:02:27.861Z,21.77
2017-07-28T05:04:56.963Z,23.20
2017-07-28T05:07:25.257Z,21.50
2017-07-28T05:09:54.555Z,27.30
2017-07-28T05:12:22.855Z,25.67
2017-07-28T05:14:51.160Z,15.10
2017-07-28T05:17:19.496Z,24.83
2017-07-28T05:19:47.840Z,15.03
2017-07-28T05:22:16.919Z,25.37
2017-07-28T05:24:45.219Z,25.60
2017-07-28T05:27:14.326Z,16.33
2017-07-28T05:29:42.623Z,24.30
2017-07-28T05:32:11.719Z,24.90
2017-07-28T05:34:40.011Z,13.53
2017-07-28T05:37:11.592Z,16.23
2017-07-28T05:39:39.927Z,14.43
2017-07-28T05:42:08.878Z,27.10
2017-07-28T05:44:37.945Z,18.07
2017-07-28T05:47:06.347Z,25.60
2017-07-28T05:49:34.651Z,22.27
2017-07-28T05:52:02.997Z,18.40
2017-07-28T05:54:31.620Z,11.47
2017-07-28T05:57:00.091Z,18.27
2017-07-28T05:59:28.385Z,17.40
2017-07-28T06:01:56.681Z,13.43
2017-07-28T06:04:25.008Z,12.90
2017-07-28T06:06:53.354Z,19.67
2017-07-28T06:09:21.662Z,17.80
2017-07-28T06:11:50.009Z,17.07
2017-07-28T06:14:18.299Z,19.00
2017-07-28T06:16:46.624Z,14.20
2017-07-28T06:19:15.640Z,13.13
2017-07-28T06:21:44.047Z,10.90
2017-07-28T06:24:12.391Z,14.90
2017-07-28T06:26:40.692Z,11.93
2017-07-28T06:29:09.016Z,8.90
2017-07-28T06:31:37.312Z,14.23
2017-07-28T06:34:06.154Z,15.23
2017-07-28T06:36:34.451Z,12.73
2017-07-28T06:39:02.823Z,11.10
2017-07-28T06:41:31.263Z,14.57
2017-07-28T06:43:59.552Z,19.50
2017-07-28T06:46:27.841Z,13.80
2017-07-28T06:48:56.655Z,19.50
2017-07-28T06:51:24.991Z,19.80
2017-07-28T06:53:55.941Z,15.10
2017-07-28T06:56:24.241Z,15.53
2017-07-28T06:58:52.540Z,20.33
2017-07-28T07:01:20.885Z,12.93
2017-07-28T07:03:49.321Z,10.83
2017-07-28T07:06:18.104Z,11.27
2017-07-28T07:08:46.400Z,13.70
2017-07-28T07:11:14.747Z,13.80
2017-07-28T07:13:43.028Z,18.70
2017-07-28T07:16:11.532Z,13.00
2017-07-28T07:18:39.833Z,8.27
2017-07-28T07:21:08.140Z,18.13
2017-07-28T07:23:36.613Z,20.40
2017-07-28T07:26:04.908Z,18.30
2017-07-28T07:28:33.208Z,10.93
2017-07-28T07:31:01.548Z,19.93
2017-07-28T07:33:29.843Z,9.53
2017-07-28T07:35:58.195Z,15.47
2017-07-28T07:38:26.483Z,16.43
2017-07-28T07:40:54.816Z,12.17
2017-07-28T07:43:23.104Z,14.20
2017-07-28T07:45:51.783Z,11.27
2017-07-28T07:48:20.119Z,13.93
2017-07-28T07:50:49.161Z,15.77
2017-07-28T07:53:17.453Z,29.10
2017-07-28T07:55:45.793Z,24.50
2017-07-28T07:58:14.152Z,19.37
2017-07-28T08:00:42.446Z,19.87
2017-07-28T08:03:10.747Z,18.33
2017-07-28T08:05:39.044Z,14.50
2017-07-28T08:08:07.346Z,18.13
2017-07-28T08:10:35.662Z,12.40
2017-07-28T08:13:03.993Z,14.27
2017-07-28T08:15:32.283Z,15.43
2017-07-28T08:18:00.628Z,18.20
2017-07-28T08:20:28.920Z,15.00
2017-07-28T08:22:57.221Z,15.60
2017-07-28T08:25:25.513Z,11.00
2017-07-28T08:27:53.805Z,12.83
2017-07-28T08:30:22.239Z,17.03
2017-07-28T08:32:50.777Z,11.80
2017-07-28T08:35:19.118Z,14.07
2017-07-28T08:37:47.407Z,13.67
2017-07-28T08:40:15.700Z,11.53
2017-07-28T08:42:44.045Z,11.63
2017-07-28T08:45:12.330Z,7.00
2017-07-28T08:47:40.631Z,10.37
2017-07-28T08:50:09.489Z,13.60
2017-07-28T08:52:37.800Z,10.13
2017-07-28T08:55:06.107Z,13.20
2017-07-28T08:57:34.567Z,8.60
2017-07-28T09:00:02.868Z,25.53
2017-07-28T09:02:31.195Z,3.90
2017-07-28T09:05:02.688Z,10.67
2017-07-28T09:07:31.116Z,5.53
2017-07-28T09:09:59.403Z,6.07
2017-07-28T09:12:27.700Z,11.60
2017-07-28T09:14:55.992Z,8.80
2017-07-28T09:17:25.331Z,7.80
2017-07-28T09:19:53.660Z,22.50
2017-07-28T09:22:21.961Z,19.63
2017-07-28T09:24:50.287Z,9.23
2017-07-28T09:27:18.618Z,10.70
2017-07-28T09:29:46.976Z,11.67
2017-07-28T09:32:15.267Z,11.40
2017-07-28T09:34:43.604Z,9.73
2017-07-28T09:37:11.883Z,14.60
2017-07-28T09:39:40.243Z,7.83
2017-07-28T09:42:08.537Z,15.10
2017-07-28T09:44:36.835Z,18.80
2017-07-28T09:47:05.122Z,7.20
2017-07-28T09:49:33.413Z,17.73
2017-07-28T09:52:01.744Z,11.40
2017-07-28T09:54:30.039Z,7.30
2017-07-28T09:56:58.368Z,5.30
2017-07-28T09:59:26.712Z,12.07
2017-07-28T10:01:55.092Z,6.57
2017-07-28T10:04:23.375Z,8.20
2017-07-28T10:06:51.676Z,11.10
2017-07-28T10:09:19.972Z,7.63
2017-07-28T10:11:48.304Z,10.77
2017-07-28T10:14:16.636Z,15.10
2017-07-28T10:16:44.997Z,7.10
2017-07-28T10:19:13.292Z,7.50
2017-07-28T10:21:41.586Z,11.10
2017-07-28T10:24:09.883Z,11.50
2017-07-28T10:26:38.220Z,6.23
2017-07-28T10:29:06.507Z,13.83
2017-07-28T10:31:34.807Z,8.80
2017-07-28T10:34:06.787Z,8.50
2017-07-28T10:36:35.646Z,13.93
2017-07-28T10:39:03.952Z,7.40
2017-07-28T10:41:32.293Z,7.20
2017-07-28T10:44:00.587Z,7.90
2017-07-28T10:46:29.872Z,6.40
2017-07-28T10:48:58.160Z,4.60
2017-07-28T10:51:26.480Z,9.00
2017-07-28T10:53:54.790Z,8.10
2017-07-28T10:56:23.135Z,5.53
2017-07-28T10:58:51.445Z,6.97
2017-07-28T11:01:19.753Z,10.43
2017-07-28T11:03:48.197Z,8.80
2017-07-28T11:06:16.499Z,13.13
2017-07-28T11:08:45.832Z,6.00
2017-07-28T11:11:14.137Z,7.83
2017-07-28T11:13:42.564Z,12.40
2017-07-28T11:16:10.937Z,1.73
2017-07-28T11:18:39.276Z,11.67
2017-07-28T11:21:07.607Z,2.87
2017-07-28T11:23:35.907Z,5.70
2017-07-28T11:26:04.240Z,5.27
2017-07-28T11:28:32.538Z,3.07
2017-07-28T11:31:00.914Z,7.00
2017-07-28T11:33:29.319Z,10.47
2017-07-28T11:35:57.618Z,7.90
2017-07-28T11:38:25.953Z,3.93
2017-07-28T11:40:54.241Z,7.83
2017-07-28T11:43:22.533Z,4.80
2017-07-28T11:45:50.835Z,2.20
2017-07-28T11:48:19.215Z,10.67
2017-07-28T11:50:51.188Z,2.97
2017-07-28T11:53:19.502Z,7.93
2017-07-28T11:55:47.823Z,8.50
2017-07-28T11:58:16.115Z,6.40
2017-07-28T12:00:44.406Z,11.37
2017-07-28T12:03:12.691Z,5.33
2017-07-28T12:05:41.040Z,7.30
2017-07-28T12:08:09.415Z,11.63
2017-07-28T12:10:37.710Z,12.27
2017-07-28T12:13:06.135Z,11.23
2017-07-28T12:15:34.659Z,9.23
2017-07-28T12:18:04.153Z,8.47
2017-07-28T12:20:32.448Z,7.47
2017-07-28T12:23:01.818Z,10.70
2017-07-28T12:25:30.271Z,8.33
2017-07-28T12:27:58.569Z,7.07
2017-07-28T12:30:26.937Z,6.37
2017-07-28T12:32:55.252Z,5.80
2017-07-28T12:35:23.559Z,2.43
2017-07-28T12:37:52.131Z,3.83
2017-07-28T12:40:20.424Z,8.23
2017-07-28T12:42:49.237Z,9.03
2017-07-28T12:45:17.582Z,3.57
2017-07-28T12:47:46.017Z,4.00
2017-07-28T12:50:14.308Z,5.27
2017-07-28T12:52:42.604Z,7.50
2017-07-28T12:55:10.902Z,4.50
2017-07-28T12:57:39.205Z,5.70
2017-07-28T13:00:07.562Z,3.20
2017-07-28T13:02:35.859Z,8.67
2017-07-28T13:05:04.159Z,4.53
2017-07-28T13:07:32.612Z,6.77
2017-07-28T13:10:00.913Z,7.47
2017-07-28T13:12:29.224Z,7.80
2017-07-28T13:14:57.525Z,2.60
2017-07-28T13:17:25.868Z,7.03
2017-07-28T13:19:54.207Z,3.63
2017-07-28T13:22:22.590Z,7.33
2017-07-28T13:24:50.928Z,8.30
2017-07-28T13:27:19.237Z,7.10
2017-07-28T13:29:47.531Z,6.13
2017-07-28T13:32:15.830Z,5.27
2017-07-28T13:34:44.125Z,5.40
2017-07-28T13:37:12.460Z,3.63
2017-07-28T13:39:40.797Z,6.10
2017-07-28T13:42:09.089Z,7.67
2017-07-28T13:44:37.381Z,6.40
2017-07-28T13:47:05.685Z,7.80
2017-07-28T13:49:34.006Z,4.33
2017-07-28T13:52:02.349Z,5.17
2017-07-28T13:54:30.644Z,4.63
2017-07-28T13:56:58.945Z,9.97
2017-07-28T13:59:27.277Z,8.23
2017-07-28T14:01:55.570Z,9.73
2017-07-28T14:04:23.935Z,6.33
2017-07-28T14:06:52.264Z,6.77
2017-07-28T14:09:20.592Z,5.90
2017-07-28T14:11:48.886Z,6.83
2017-07-28T14:14:17.188Z,9.43
2017-07-28T14:16:45.489Z,3.30
2017-07-28T14:19:13.795Z,10.47
2017-07-28T14:21:42.097Z,8.30
2017-07-28T14:24:10.553Z,3.93
2017-07-28T14:26:39.081Z,4.70
2017-07-28T14:29:07.377Z,11.50
2017-07-28T14:31:35.676Z,6.03
2017-07-28T14:34:03.970Z,4.87
2017-07-28T14:36:32.272Z,7.03
2017-07-28T14:39:00.572Z,4.63
2017-07-28T14:41:28.872Z,3.83
2017-07-28T14:43:57.242Z,7.97
2017-07-28T14:46:25.545Z,8.73
2017-07-28T14:48:54.633Z,4.93
2017-07-28T14:51:22.928Z,10.60
2017-07-28T14:53:51.236Z,2.40
2017-07-28T14:56:20.484Z,8.03
2017-07-28T14:58:48.789Z,4.83
2017-07-28T15:01:17.109Z,4.20
2017-07-28T15:03:45.649Z,5.93
2017-07-28T15:06:13.986Z,3.90
2017-07-28T15:08:42.285Z,10.73
2017-07-28T15:11:10.580Z,8.43
2017-07-28T15:13:38.904Z,3.60
2017-07-28T15:16:07.222Z,6.77
2017-07-28T15:18:35.565Z,9.37
2017-07-28T15:21:03.933Z,6.93
2017-07-28T15:23:32.236Z,8.53
2017-07-28T15:26:00.569Z,5.30
2017-07-28T15:28:28.869Z,7.40
2017-07-28T15:30:58.815Z,4.07
2017-07-28T15:33:27.182Z,5.00
2017-07-28T15:35:55.658Z,10.33
2017-07-28T15:38:24.052Z,6.40
2017-07-28T15:40:52.355Z,11.27
2017-07-28T15:43:20.655Z,7.27
2017-07-28T15:45:49.085Z,6.13
2017-07-28T15:48:17.510Z,5.67
2017-07-28T15:50:45.802Z,11.03
2017-07-28T15:53:14.154Z,6.47
2017-07-28T15:55:42.461Z,8.30
2017-07-28T15:58:10.770Z,7.70
2017-07-28T16:00:39.058Z,5.67
2017-07-28T16:03:07.846Z,10.53
2017-07-28T16:05:37.948Z,12.13
2017-07-28T16:08:06.241Z,3.83
2017-07-28T16:10:34.601Z,5.70
2017-07-28T16:13:02.901Z,6.97
2017-07-28T16:15:31.201Z,6.47
2017-07-28T16:17:59.513Z,8.80
2017-07-28T16:20:27.825Z,9.50
2017-07-28T16:22:56.350Z,4.10
2017-07-28T16:25:24.646Z,10.63
2017-07-28T16:27:52.947Z,13.33
2017-07-28T16:30:21.249Z,4.67
2017-07-28T16:32:49.571Z,3.63
2017-07-28T16:35:17.877Z,13.57
2017-07-28T16:37:46.387Z,8.57
2017-07-28T16:40:14.680Z,4.03
2017-07-28T16:42:42.991Z,5.77
2017-07-28T16:45:11.297Z,6.67
2017-07-28T16:47:39.599Z,9.53
2017-07-28T16:50:07.896Z,4.23
2017-07-28T16:52:36.205Z,11.47
2017-07-28T16:55:04.553Z,4.63
2017-07-28T16:57:32.887Z,11.03
2017-07-28T17:00:02.941Z,7.10
2017-07-28T17:02:32.063Z,6.20
2017-07-28T17:05:00.365Z,12.30
2017-07-28T17:07:28.703Z,7.03
2017-07-28T17:09:56.992Z,3.97
2017-07-28T17:12:25.293Z,10.30
2017-07-28T17:14:53.588Z,6.53
2017-07-28T17:17:21.889Z,5.83
2017-07-28T17:19:50.251Z,4.50
2017-07-28T17:22:18.548Z,2.07
2017-07-28T17:24:46.856Z,2.80
2017-07-28T17:27:15.165Z,5.50
2017-07-28T17:29:43.465Z,4.00
2017-07-28T17:32:11.918Z,3.13
2017-07-28T17:34:40.225Z,9.20
2017-07-28T17:37:08.526Z,8.13
2017-07-28T17:39:36.829Z,4.40
2017-07-28T17:42:05.141Z,11.73
2017-07-28T17:44:33.440Z,7.00
2017-07-28T17:47:01.753Z,9.80
2017-07-28T17:49:30.101Z,5.00
2017-07-28T17:51:58.409Z,5.73
2017-07-28T17:54:26.746Z,4.10
2017-07-28T17:56:55.131Z,8.87
2017-07-28T17:59:23.493Z,3.33
2017-07-28T18:01:51.778Z,4.80
2017-07-28T18:04:20.116Z,5.40
2017-07-28T18:06:48.461Z,4.10
2017-07-28T18:09:16.804Z,4.47
2017-07-28T18:14:20.144Z,9.40
2017-07-28T18:16:48.543Z,12.67
2017-07-28T18:19:16.892Z,13.30
2017-07-28T18:21:45.178Z,4.93
2017-07-28T18:24:13.607Z,5.90
2017-07-28T18:26:41.910Z,8.43
2017-07-28T18:29:10.200Z,2.17
2017-07-28T18:31:38.507Z,11.63
2017-07-28T18:34:06.800Z,7.70
2017-07-28T18:36:35.162Z,3.50
2017-07-28T18:39:03.452Z,6.50
2017-07-28T18:41:31.796Z,2.67
2017-07-28T18:44:00.098Z,5.47
2017-07-28T18:46:28.400Z,7.93
2017-07-28T18:48:56.758Z,7.50
2017-07-28T18:51:25.138Z,6.47
2017-07-28T18:53:53.438Z,2.93
2017-07-28T18:56:21.734Z,4.07
2017-07-28T18:58:50.030Z,3.83
2017-07-28T19:01:18.368Z,3.90
2017-07-28T19:03:46.691Z,7.93
2017-07-28T19:06:15.025Z,5.13
2017-07-28T19:08:43.377Z,5.27
2017-07-28T19:11:11.676Z,8.60
2017-07-28T19:13:39.988Z,6.57
2017-07-28T19:16:10.163Z,5.77
2017-07-28T19:18:38.508Z,5.30
2017-07-28T19:21:06.865Z,9.80
2017-07-28T19:23:35.159Z,8.17
2017-07-28T19:26:04.875Z,2.33
2017-07-28T19:28:38.142Z,2.27
2017-07-28T19:31:06.510Z,7.33
2017-07-28T19:33:34.804Z,2.10
2017-07-28T19:36:03.164Z,3.60
2017-07-28T19:38:31.504Z,4.37
2017-07-28T19:40:59.840Z,4.77
2017-07-28T19:43:28.493Z,4.13
2017-07-28T19:45:56.824Z,5.13
2017-07-28T19:48:25.121Z,3.33
2017-07-28T19:50:53.437Z,2.00
2017-07-28T19:53:21.732Z,3.90
2017-07-28T19:55:50.071Z,2.63
2017-07-28T19:58:18.787Z,2.40
2017-07-28T20:00:47.202Z,5.43
2017-07-28T20:03:15.558Z,6.50
2017-07-28T20:08:43.789Z,3.43
2017-07-28T20:11:12.849Z,9.10
2017-07-28T20:13:41.690Z,3.17
2017-07-28T20:19:07.818Z,3.73
2017-07-28T20:21:36.200Z,3.83
2017-07-28T20:24:04.501Z,4.30
2017-07-28T20:26:32.809Z,1.90
2017-07-28T20:29:01.133Z,4.73
2017-07-28T20:31:29.972Z,5.97
2017-07-28T20:33:58.292Z,2.30
2017-07-28T20:36:26.630Z,4.97
2017-07-28T20:38:54.933Z,2.97
2017-07-28T20:41:23.316Z,10.57
2017-07-28T20:43:51.636Z,6.63
2017-07-28T20:46:20.106Z,7.93
2017-07-28T20:48:48.450Z,4.07
2017-07-28T20:51:16.856Z,2.73
2017-07-28T20:53:45.164Z,14.83
2017-07-28T20:56:13.516Z,5.20
2017-07-28T20:58:41.870Z,11.80
2017-07-28T21:01:10.350Z,3.80
2017-07-28T21:03:38.797Z,2.90
2017-07-28T21:06:07.139Z,9.20
2017-07-28T21:08:35.439Z,5.23
2017-07-28T21:11:03.781Z,12.10
2017-07-28T21:13:43.869Z,15.77
2017-07-28T21:16:12.177Z,4.87
2017-07-28T21:18:40.471Z,8.70
2017-07-28T21:21:08.820Z,7.80
2017-07-28T21:23:37.119Z,5.23
2017-07-28T21:26:05.416Z,1.57
2017-07-28T21:28:33.714Z,3.40
2017-07-28T21:31:02.045Z,4.27
2017-07-28T21:33:30.347Z,3.87
2017-07-28T21:35:58.640Z,5.70
2017-07-28T21:38:26.956Z,6.67
2017-07-28T21:40:55.258Z,7.60
2017-07-28T21:43:23.553Z,3.80
2017-07-28T21:45:51.953Z,2.90
2017-07-28T21:48:20.244Z,7.60
2017-07-28T21:50:48.546Z,7.23
2017-07-28T21:53:16.850Z,11.00
2017-07-28T21:55:45.214Z,9.80
2017-07-28T21:58:13.611Z,7.67
2017-07-28T22:00:41.932Z,5.63
2017-07-28T22:03:11.118Z,5.67
2017-07-28T22:05:39.415Z,9.90
2017-07-28T22:08:07.706Z,7.97
2017-07-28T22:10:36.006Z,53.20
2017-07-28T22:13:04.308Z,6.00
2017-07-28T22:15:32.645Z,5.10
2017-07-28T22:18:01.000Z,3.53
2017-07-28T22:20:33.937Z,9.90
2017-07-28T22:23:02.241Z,2.47
2017-07-28T22:25:31.360Z,7.30
2017-07-28T22:27:59.668Z,6.00
2017-07-28T22:30:28.986Z,4.13
2017-07-28T22:32:57.572Z,12.27
2017-07-28T22:35:25.880Z,8.93
2017-07-28T22:37:54.235Z,15.77
2017-07-28T22:40:22.545Z,8.83
2017-07-28T22:42:50.841Z,9.10
2017-07-28T22:45:19.183Z,6.30
2017-07-28T22:47:47.493Z,12.90
2017-07-28T22:50:15.790Z,6.73
2017-07-28T22:52:44.090Z,5.73
2017-07-28T22:55:12.391Z,10.20
2017-07-28T22:57:40.690Z,6.33
2017-07-28T23:00:09.029Z,4.40
2017-07-28T23:02:37.345Z,6.00
2017-07-28T23:05:05.661Z,4.73
2017-07-28T23:07:33.964Z,7.90
2017-07-28T23:10:02.294Z,8.60
2017-07-28T23:12:30.601Z,12.30
2017-07-28T23:14:58.913Z,7.93
2017-07-28T23:17:27.282Z,7.97
2017-07-28T23:19:55.568Z,6.27
2017-07-28T23:22:24.656Z,8.33
2017-07-28T23:24:52.950Z,5.73
2017-07-28T23:27:22.701Z,12.10
2017-07-28T23:29:51.004Z,7.13
2017-07-28T23:32:22.562Z,7.03
2017-07-28T23:34:50.858Z,4.30
2017-07-28T23:37:19.164Z,8.20
2017-07-28T23:39:47.484Z,10.10
2017-07-28T23:42:16.032Z,12.70
2017-07-28T23:44:45.093Z,8.07
2017-07-28T23:47:13.401Z,7.10
2017-07-28T23:49:41.750Z,6.23
2017-07-28T23:52:10.067Z,10.20
2017-07-28T23:54:38.364Z,4.80
2017-07-28T23:57:06.681Z,8.13
2017-07-28T23:59:35.747Z,8.03
